createdAt,value
2022-07-28T00:00:50.000Z,17.34
2022-07-28T00:05:54.479Z,17.34
2022-07-28T00:10:57.482Z,17.05
2022-07-28T00:16:00.358Z,17.16
2022-07-28T00:21:04.846Z,17.17
2022-07-28T00:26:08.875Z,17.20
2022-07-28T00:31:13.797Z,17.29
2022-07-28T00:36:18.364Z,17.08
2022-07-28T00:41:27.585Z,17.14
2022-07-28T00:46:30.607Z,17.06
2022-07-28T00:51:34.852Z,16.86
2022-07-28T00:56:43.035Z,17.00
2022-07-28T01:01:48.142Z,16.83
2022-07-28T01:06:59.892Z,16.72
2022-07-28T01:12:08.292Z,16.55
2022-07-28T01:17:16.453Z,16.56
2022-07-28T01:22:22.924Z,16.63
2022-07-28T01:27:35.324Z,16.51
2022-07-28T01:32:41.917Z,16.47
2022-07-28T01:37:49.867Z,16.19
2022-07-28T01:42:53.957Z,16.73
2022-07-28T01:48:00.915Z,16.80
2022-07-28T01:53:04.207Z,16.83
2022-07-28T01:58:08.349Z,16.74
2022-07-28T02:03:13.650Z,16.75
2022-07-28T02:08:17.241Z,16.63
2022-07-28T02:13:20.087Z,16.59
2022-07-28T02:18:24.626Z,16.50
2022-07-28T02:23:28.541Z,16.54
2022-07-28T02:28:31.479Z,16.45
2022-07-28T02:33:59.884Z,16.41
2022-07-28T02:39:04.619Z,16.28
2022-07-28T02:44:12.109Z,16.42
2022-07-28T02:49:21.056Z,16.32
2022-07-28T02:54:24.621Z,16.05
2022-07-28T02:59:29.395Z,16.07
2022-07-28T03:04:51.299Z,16.23
2022-07-28T03:09:54.509Z,16.03
2022-07-28T03:14:57.661Z,15.92
2022-07-28T03:20:01.779Z,16.02
2022-07-28T03:25:08.351Z,16.04
2022-07-28T03:30:19.306Z,16.12
2022-07-28T03:35:25.082Z,15.98
2022-07-28T03:40:29.670Z,16.12
2022-07-28T03:45:32.870Z,15.98
2022-07-28T03:50:37.134Z,15.77
2022-07-28T03:55:40.194Z,15.99
2022-07-28T04:00:43.335Z,16.10
2022-07-28T04:05:47.755Z,15.96
2022-07-28T04:10:50.655Z,15.79
2022-07-28T04:15:53.480Z,15.86
2022-07-28T04:20:57.845Z,15.89
2022-07-28T04:26:00.739Z,15.87
2022-07-28T04:31:06.024Z,15.65
2022-07-28T04:36:11.595Z,15.84
2022-07-28T04:41:14.385Z,15.86
2022-07-28T04:46:17.464Z,15.83
2022-07-28T04:51:31.398Z,15.97
2022-07-28T04:56:36.928Z,16.12
2022-07-28T05:01:40.938Z,15.90
2022-07-28T05:06:47.262Z,15.98
2022-07-28T05:11:51.283Z,16.09
2022-07-28T05:16:54.109Z,16.29
2022-07-28T05:21:58.335Z,16.39
2022-07-28T05:27:01.184Z,16.30
2022-07-28T05:32:17.542Z,16.30
2022-07-28T05:37:22.244Z,16.49
2022-07-28T05:42:26.523Z,16.42
2022-07-28T05:47:29.386Z,16.40
2022-07-28T05:52:33.775Z,16.35
2022-07-28T05:57:37.853Z,16.33
2022-07-28T06:02:40.885Z,16.31
2022-07-28T06:07:45.497Z,16.19
2022-07-28T06:12:50.764Z,16.60
2022-07-28T06:17:55.713Z,16.66
2022-07-28T06:23:00.097Z,16.62
2022-07-28T06:28:03.809Z,16.81
2022-07-28T06:33:07.747Z,17.11
2022-07-28T06:38:11.906Z,17.18
2022-07-28T06:43:14.942Z,17.63
2022-07-28T06:48:18.868Z,18.33
2022-07-28T06:53:23.340Z,19.48
2022-07-28T06:58:26.309Z,19.31
2022-07-28T07:03:29.168Z,18.87
2022-07-28T07:08:33.569Z,19.27
2022-07-28T07:13:37.023Z,19.68
2022-07-28T07:18:40.181Z,19.32
2022-07-28T07:23:46.172Z,20.03
2022-07-28T07:28:49.079Z,20.06
2022-07-28T07:33:51.906Z,19.29
2022-07-28T07:38:56.140Z,19.61
2022-07-28T07:43:58.926Z,19.30
2022-07-28T07:49:01.881Z,19.35
2022-07-28T07:54:06.303Z,19.39
2022-07-28T07:59:09.216Z,19.86
2022-07-28T08:04:12.597Z,20.15
2022-07-28T08:09:19.625Z,19.75
2022-07-28T08:14:22.506Z,19.95
2022-07-28T08:19:25.465Z,20.64
2022-07-28T08:24:33.582Z,20.30
2022-07-28T08:35:22.665Z,19.70
2022-07-28T08:40:27.455Z,20.36
2022-07-28T08:45:35.416Z,20.51
2022-07-28T08:50:40.239Z,20.71
2022-07-28T08:55:44.817Z,20.49
2022-07-28T09:00:48.274Z,19.88
2022-07-28T09:05:51.314Z,19.92
2022-07-28T09:10:55.738Z,19.60
2022-07-28T09:16:00.178Z,19.87
2022-07-28T09:21:03.283Z,20.02
2022-07-28T09:26:12.343Z,20.00
2022-07-28T09:31:16.737Z,20.45
2022-07-28T09:36:19.591Z,20.35
2022-07-28T09:41:24.363Z,20.06
2022-07-28T09:46:29.923Z,21.10
2022-07-28T09:51:34.288Z,20.58
2022-07-28T09:56:39.289Z,21.20
2022-07-28T10:01:52.671Z,20.43
2022-07-28T10:07:02.185Z,20.75
2022-07-28T10:12:20.750Z,20.69
2022-07-28T10:17:25.281Z,20.86
2022-07-28T10:22:33.058Z,20.67
2022-07-28T10:27:37.996Z,21.02
2022-07-28T10:32:42.706Z,21.09
2022-07-28T10:37:50.252Z,21.18
2022-07-28T10:42:54.979Z,20.82
2022-07-28T10:47:59.513Z,21.12
2022-07-28T10:53:03.882Z,21.11
2022-07-28T10:58:14.094Z,21.11
2022-07-28T11:03:40.809Z,21.60
2022-07-28T11:08:44.034Z,21.76
2022-07-28T11:13:51.845Z,21.74
2022-07-28T11:19:08.041Z,21.56
2022-07-28T11:25:19.972Z,21.55
2022-07-28T11:30:52.399Z,21.55
2022-07-28T11:35:57.664Z,22.01
2022-07-28T11:41:00.615Z,22.64
2022-07-28T11:46:37.726Z,22.89
2022-07-28T11:51:51.292Z,22.11
2022-07-28T11:56:59.248Z,21.61
2022-07-28T12:02:03.649Z,21.30
2022-07-28T12:07:07.310Z,21.11
2022-07-28T12:12:10.574Z,21.14
2022-07-28T12:17:16.028Z,21.31
2022-07-28T12:22:25.997Z,21.36
2022-07-28T12:27:31.708Z,21.51
2022-07-28T12:32:38.114Z,21.70
2022-07-28T12:37:42.247Z,21.95
2022-07-28T12:42:45.384Z,21.56
2022-07-28T12:47:56.186Z,21.92
2022-07-28T12:53:07.009Z,21.57
2022-07-28T12:58:26.735Z,21.95
2022-07-28T13:03:31.037Z,21.93
2022-07-28T13:08:44.548Z,21.81
2022-07-28T13:13:49.422Z,22.49
2022-07-28T13:18:55.248Z,22.58
2022-07-28T13:23:58.066Z,22.53
2022-07-28T13:29:01.311Z,22.20
2022-07-28T13:34:06.907Z,22.48
2022-07-28T13:39:10.746Z,22.29
2022-07-28T13:44:13.770Z,22.39
2022-07-28T13:49:18.540Z,22.50
2022-07-28T13:54:24.485Z,22.00
2022-07-28T13:59:27.507Z,21.32
2022-07-28T14:04:34.961Z,21.68
2022-07-28T14:09:46.220Z,21.75
2022-07-28T14:14:52.109Z,21.99
2022-07-28T14:19:57.423Z,22.21
2022-07-28T14:25:00.351Z,22.65
2022-07-28T14:30:04.078Z,21.80
2022-07-28T14:35:09.363Z,21.78
2022-07-28T14:40:13.623Z,21.76
2022-07-28T14:45:16.548Z,22.01
2022-07-28T14:50:20.707Z,22.60
2022-07-28T14:55:23.717Z,22.59
2022-07-28T15:00:28.311Z,22.62
2022-07-28T15:05:32.464Z,22.87
2022-07-28T15:10:35.374Z,22.98
2022-07-28T15:15:42.868Z,22.11
2022-07-28T15:20:49.772Z,21.52
2022-07-28T15:25:53.176Z,21.70
2022-07-28T15:30:59.011Z,22.43
2022-07-28T15:36:03.954Z,21.96
2022-07-28T15:41:07.042Z,22.03
2022-07-28T15:46:11.895Z,21.28
2022-07-28T15:51:19.449Z,21.52
2022-07-28T15:56:26.274Z,21.13
2022-07-28T16:01:30.926Z,20.96
2022-07-28T16:06:53.159Z,21.55
2022-07-28T16:11:56.363Z,21.71
2022-07-28T16:16:59.243Z,21.72
2022-07-28T16:22:04.160Z,21.78
2022-07-28T16:27:07.075Z,21.87
2022-07-28T16:32:10.100Z,21.69
2022-07-28T16:37:19.362Z,21.95
2022-07-28T16:42:22.677Z,21.10
2022-07-28T16:47:25.743Z,21.23
2022-07-28T16:52:30.051Z,21.45
2022-07-28T16:57:32.833Z,21.44
2022-07-28T17:02:35.935Z,21.82
2022-07-28T17:07:46.231Z,22.07
2022-07-28T17:12:50.127Z,21.85
2022-07-28T17:17:53.477Z,21.70
2022-07-28T17:22:58.306Z,21.45
2022-07-28T17:28:01.156Z,21.27
2022-07-28T17:33:08.775Z,21.47
2022-07-28T17:38:15.807Z,21.46
2022-07-28T17:43:19.396Z,21.18
2022-07-28T17:48:22.739Z,21.28
2022-07-28T17:53:29.703Z,21.98
2022-07-28T17:58:34.074Z,21.64
2022-07-28T18:03:56.425Z,21.79
2022-07-28T18:09:06.877Z,21.39
2022-07-28T18:14:10.578Z,21.80
2022-07-28T18:19:13.978Z,21.78
2022-07-28T18:24:21.729Z,21.79
2022-07-28T18:29:37.731Z,21.10
2022-07-28T18:34:45.253Z,21.23
2022-07-28T18:39:50.086Z,21.17
2022-07-28T18:44:52.913Z,21.12
2022-07-28T18:50:27.818Z,21.05
2022-07-28T18:55:37.028Z,21.15
2022-07-28T19:00:41.790Z,21.33
2022-07-28T19:05:46.785Z,21.37
2022-07-28T19:10:51.163Z,21.25
2022-07-28T19:15:54.024Z,21.09
2022-07-28T19:20:57.039Z,20.50
2022-07-28T19:26:03.884Z,20.66
2022-07-28T19:31:10.558Z,20.60
2022-07-28T19:36:15.820Z,20.36
2022-07-28T19:41:20.165Z,20.38
2022-07-28T19:46:24.825Z,20.46
2022-07-28T19:51:31.483Z,20.50
2022-07-28T19:56:35.664Z,19.81
2022-07-28T20:01:46.620Z,19.76
2022-07-28T20:06:55.556Z,19.61
2022-07-28T20:12:04.260Z,19.59
2022-07-28T20:17:35.686Z,19.61
2022-07-28T20:22:38.420Z,19.63
2022-07-28T20:27:43.657Z,19.50
2022-07-28T20:32:51.210Z,19.47
2022-07-28T20:37:54.060Z,19.50
2022-07-28T20:42:58.277Z,19.36
2022-07-28T20:48:04.093Z,19.19
2022-07-28T20:53:09.947Z,18.73
2022-07-28T20:58:15.298Z,18.94
2022-07-28T21:03:18.304Z,19.04
2022-07-28T21:08:23.684Z,18.95
2022-07-28T21:13:31.065Z,19.22
2022-07-28T21:18:34.675Z,19.18
2022-07-28T21:23:37.684Z,19.39
2022-07-28T21:28:56.880Z,19.56
2022-07-28T21:33:59.708Z,19.48
2022-07-28T21:39:03.041Z,19.44
2022-07-28T21:44:07.299Z,19.50
2022-07-28T21:49:10.174Z,19.41
2022-07-28T21:54:13.792Z,19.11
2022-07-28T21:59:18.384Z,18.81
2022-07-28T22:04:21.707Z,18.80
2022-07-28T22:09:24.854Z,18.78
2022-07-28T22:14:32.206Z,18.79
2022-07-28T22:19:35.138Z,18.67
2022-07-28T22:24:38.023Z,18.99
2022-07-28T22:29:44.119Z,18.79
2022-07-28T22:34:54.397Z,18.61
2022-07-28T22:39:57.273Z,18.59
2022-07-28T22:45:01.480Z,18.34
2022-07-28T22:50:06.322Z,18.35
2022-07-28T23:00:32.889Z,18.03
2022-07-28T23:05:39.377Z,18.08
2022-07-28T23:10:42.557Z,17.99
2022-07-28T23:15:46.988Z,17.92
2022-07-28T23:20:49.866Z,17.80
2022-07-28T23:25:52.849Z,18.00
2022-07-28T23:30:58.359Z,17.75
2022-07-28T23:36:01.339Z,17.87
2022-07-28T23:41:04.280Z,17.52
2022-07-28T23:46:08.947Z,17.38
2022-07-28T23:51:11.885Z,17.54
2022-07-28T23:56:15.688Z,17.44
